Latest Weather Observations for Red Rocks Point

IDW60801

Issued at 7:32 pm WST Monday 22 December 2014 (issued every 30 minutes, with the page automatically refreshed every 10 minutes)

About weather observations | Map of weather stations | Latest weather observations for WA | Other Formats
Station Details ID: 011053 Name: RED ROCKS POINT Lat: -32.20 Lon: 127.53 Height: 3.1 m
Data from the previous 72 hours. | See also: Recent months for locations in Western Australia
Date/Time
WST
Temp
°C
App
Temp
°C
Dew
Point
Rel
Hum
%
Delta-T
°C
Wind Press
QNH
hPa
Press
MSL
hPa
Rain
since 9 am
mm
Dir
 
Spd
km/h
Gust
km/h
Spd
kts
Gust
kts
22/07:30pm 19.2 15.5 13.8 71 3.1 S 26 32 14 17 1017.0 - 0.0
22/07:00pm 19.2 16.7 14.0 72 3.0 S 20 32 11 17 1016.6 - 0.0
22/06:30pm 18.8 15.7 12.3 66 3.6 S 20 28 11 15 1016.5 - 0.0
22/06:00pm 19.2 15.6 13.2 68 3.4 S 24 30 13 16 1016.3 1016.3 0.0
22/05:30pm 19.6 16.3 12.8 65 3.8 S 22 30 12 16 1016.2 - 0.0
22/05:00pm 20.3 16.8 13.3 64 4.0 S 24 28 13 15 1015.8 - 0.0
22/04:30pm 20.7 17.8 12.9 61 4.4 S 20 28 11 15 1015.7 - 0.0
22/04:00pm 21.0 18.0 12.7 59 4.7 S 20 28 11 15 1015.6 - 0.0
22/03:30pm 21.2 18.0 13.1 60 4.6 S 22 26 12 14 1015.7 - 0.0
22/03:00pm 21.3 18.0 12.7 58 4.9 S 22 28 12 15 1015.7 1015.7 0.0
22/02:30pm 21.5 18.1 12.6 57 5.0 S 22 28 12 15 1015.8 - 0.0
22/02:00pm 22.2 18.7 13.5 57 5.0 S 24 30 13 16 1015.7 - 0.0
22/01:30pm 22.5 18.5 13.0 55 5.4 S 26 32 14 17 1015.8 - 0.0
22/01:00pm 22.6 17.9 13.1 55 5.5 S 30 35 16 19 1015.6 - 0.0
22/12:30pm 22.5 18.4 13.8 58 5.1 S 28 35 15 19 1015.8 - 0.0
22/12:00pm 22.5 18.3 13.6 57 5.2 S 28 32 15 17 1015.8 1015.8 0.0
22/11:30am 22.2 17.8 14.1 60 4.7 S 30 35 16 19 1015.9 - 0.0
22/11:00am 22.2 18.0 13.5 57 5.0 S 28 33 15 18 1016.2 - 0.0
22/10:30am 21.4 17.8 14.3 64 4.1 S 26 32 14 17 1016.3 - 0.0
22/10:00am 20.7 17.4 14.1 66 3.8 S 24 30 13 16 1016.1 - 0.0
22/09:30am 21.2 17.9 14.1 64 4.1 S 24 28 13 15 1016.1 - 0.0
22/09:00am 21.6 19.2 14.5 64 4.2 S 20 26 11 14 1015.7 1015.7 0.0
22/08:30am 20.0 17.1 14.1 69 3.4 S 22 26 12 14 1015.7 - 0.0
22/08:00am 19.8 17.5 14.6 72 3.0 S 20 26 11 14 1015.7 - 0.0
22/07:30am 19.7 16.8 15.1 75 2.7 S 24 28 13 15 1015.6 - 0.0
22/07:00am 19.7 15.8 14.3 71 3.1 S 28 32 15 17 1015.1 - 0.0
22/06:30am 19.8 15.7 15.0 74 2.8 S 30 33 16 18 1014.7 - 0.0
22/06:00am 19.8 16.5 15.0 74 2.8 S 26 30 14 16 1014.4 1014.4 0.0
22/05:30am 19.3 15.6 13.9 71 3.1 S 26 32 14 17 1014.1 - 0.0
22/05:00am 19.1 15.7 14.8 76 2.5 S 26 32 14 17 1013.8 - 0.0
22/04:30am 18.8 15.3 14.5 76 2.5 SSE 26 33 14 18 1013.6 - 0.0
22/04:00am 18.8 14.9 14.3 75 2.6 S 28 33 15 18 1013.5 - 0.0
22/03:30am 18.9 14.8 14.8 77 2.4 S 30 35 16 19 1013.2 - 0.0
22/03:00am 19.1 15.4 15.0 77 2.4 S 28 32 15 17 1013.0 1013.0 0.0
22/02:30am 19.0 15.0 15.1 78 2.3 S 30 33 16 18 1012.9 - 0.0
22/02:00am 19.0 15.4 15.3 79 2.2 S 28 33 15 18 1012.9 - 0.0
22/01:30am 19.0 15.6 14.7 76 2.5 S 26 30 14 16 1013.2 - 0.0
22/01:00am 18.9 15.7 14.2 74 2.7 SSE 24 30 13 16 1013.3 - 0.0
22/12:30am 18.9 15.1 14.8 77 2.4 SSE 28 35 15 19 1013.6 - 0.0
22/12:00am 19.0 15.0 15.3 79 2.2 S 30 35 16 19 1013.9 1013.9 0.0
 
Date/Time
WST
Temp
°C
App
Temp
°C
Dew
Point
Rel
Hum
%
Delta-T
°C
Wind Press
QNH
hPa
Press
MSL
hPa
Rain
since 9 am
mm
Dir
 
Spd
km/h
Gust
km/h
Spd
kts
Gust
kts
21/11:30pm 19.1 15.0 15.0 77 2.4 SSE 30 35 16 19 1014.2 - 0.0
21/11:00pm 19.2 14.7 15.5 79 2.2 SSE 33 41 18 22 1014.2 - 0.0
21/10:30pm 19.7 15.9 15.8 78 2.3 SE 30 35 16 19 1014.4 - 0.0
21/10:00pm 19.5 15.3 15.6 78 2.3 SE 32 35 17 19 1014.3 - 0.0
21/09:30pm 19.4 15.2 15.7 79 2.2 SSE 32 39 17 21 1014.0 - 0.0
21/09:00pm 19.4 14.9 15.5 78 2.3 SSE 33 41 18 22 1013.6 1013.6 0.0
21/08:30pm 19.3 14.4 15.4 78 2.3 SSE 35 41 19 22 1013.1 - 0.0
21/08:00pm 19.3 15.1 15.6 79 2.2 SSE 32 39 17 21 1012.7 - 0.0
21/07:30pm 19.6 15.9 15.9 79 2.2 SSE 30 37 16 20 1012.5 - 0.0
21/07:00pm 19.5 15.6 15.6 78 2.3 SSE 30 33 16 18 1012.2 - 0.0
21/06:30pm 19.8 16.5 16.1 79 2.2 SSE 28 32 15 17 1011.9 - 0.0
21/06:00pm 19.8 16.6 15.2 75 2.7 SSE 26 30 14 16 1012.0 1012.0 0.0
21/05:30pm 20.2 16.0 15.6 75 2.7 SSE 32 39 17 21 1011.4 - 0.0
21/05:00pm 20.4 16.6 15.8 75 2.7 SE 30 33 16 18 1011.5 - 0.0
21/04:30pm 20.4 17.5 15.0 71 3.2 SE 24 30 13 16 1012.1 - 0.0
21/04:00pm 20.8 16.9 16.4 76 2.7 SE 32 37 17 20 1011.1 - 0.0
21/03:30pm 21.0 17.2 16.6 76 2.7 ESE 32 39 17 21 1010.5 - 0.0
21/03:00pm 21.0 16.1 16.4 75 2.8 ESE 37 43 20 23 1010.6 1010.6 0.0
21/02:30pm 22.0 17.2 16.7 72 3.2 ESE 37 43 20 23 1011.0 - 0.0
21/02:00pm 22.2 17.2 16.0 68 3.7 SE 37 43 20 23 1011.3 - 0.0
21/01:30pm 22.3 18.3 16.6 70 3.5 SE 33 41 18 22 1011.6 - 0.0
21/01:00pm 22.2 17.6 16.2 69 3.6 SE 35 41 19 22 1012.1 - 0.0
21/12:30pm 22.5 18.6 17.0 71 3.4 SE 33 41 18 22 1012.1 - 0.0
21/12:00pm 21.8 17.6 17.2 75 2.8 SE 35 41 19 22 1012.1 1012.1 0.0
21/11:30am 22.2 18.0 17.1 73 3.1 SSE 35 39 19 21 1013.0 - 0.0
21/11:00am 21.6 17.5 17.4 77 2.6 SE 35 41 19 22 1012.7 - 0.0
21/10:30am 21.1 16.8 16.9 77 2.6 SE 35 41 19 22 1012.5 - 0.0
21/10:00am 21.2 17.6 17.6 80 2.2 SE 33 39 18 21 1012.1 - 0.0
21/09:30am 20.5 16.7 17.3 82 2.0 SSE 33 41 18 22 1011.9 - 0.0
21/09:00am 20.9 17.0 17.9 83 1.9 SSE 35 39 19 21 1011.3 1011.3 4.2
21/08:30am 20.6 17.6 17.8 84 1.7 SE 30 35 16 19 1010.8 - 4.2
21/08:00am 20.7 18.2 18.1 85 1.6 SSE 28 32 15 17 1010.3 - 4.2
21/07:30am 20.7 18.1 17.9 84 1.7 SE 28 32 15 17 1010.1 - 4.2
21/07:00am 21.2 19.3 18.6 85 1.6 SE 26 32 14 17 1009.8 - 4.2
21/06:30am 20.6 17.7 18.0 85 1.6 SE 30 33 16 18 1009.6 - 4.2
21/06:00am 20.7 17.9 18.1 85 1.6 SE 30 35 16 19 1009.1 1009.1 4.2
21/05:30am 20.8 17.6 18.2 85 1.6 SE 32 39 17 21 1008.4 - 4.2
21/05:00am 20.5 17.9 17.9 85 1.6 SE 28 32 15 17 1008.1 - 4.2
21/04:30am 20.7 17.2 17.9 84 1.7 SE 33 39 18 21 1007.0 - 4.2
21/04:00am 20.9 17.2 17.5 81 2.1 SE 33 39 18 21 1006.7 - 4.2
21/03:30am 21.0 17.2 16.8 77 2.6 ESE 32 41 17 22 1006.1 - 4.2
21/03:00am 21.4 17.2 16.1 72 3.2 ESE 33 46 18 25 1006.3 1006.3 4.2
21/02:30am 21.4 15.2 14.8 66 3.9 E 41 50 22 27 1005.3 - 4.2
21/02:02am 20.8 14.1 16.2 75 2.8 E 46 65 25 35 1005.0 - 4.2
21/02:00am 20.9 13.2 15.4 71 3.3 E 50 65 27 35 1004.8 - 4.2
21/01:53am 20.6 11.2 16.4 77 2.5 ENE 61 80 33 43 1003.7 - 4.2
21/01:41am 20.4 12.0 17.2 82 2.0 ENE 57 72 31 39 1004.3 - 4.2
21/01:36am 20.4 13.4 17.2 82 2.0 E 50 54 27 29 1006.5 - 4.2
21/01:30am 20.2 17.3 17.0 82 1.9 E 28 41 15 22 1008.5 - 4.2
21/01:26am 20.0 18.1 16.8 82 1.9 E 22 30 12 16 1009.0 - 4.2
21/01:00am 18.8 17.5 16.9 89 1.1 S 19 22 10 12 1011.1 - 4.0
21/12:30am 19.2 16.6 17.7 91 0.9 SSW 28 35 15 19 1012.0 - 3.0
21/12:00am 19.6 16.4 18.1 91 0.9 SSW 32 43 17 23 1012.2 1012.2 2.4
 
Date/Time
WST
Temp
°C
App
Temp
°C
Dew
Point
Rel
Hum
%
Delta-T
°C
Wind Press
QNH
hPa
Press
MSL
hPa
Rain
since 9 am
mm
Dir
 
Spd
km/h
Gust
km/h
Spd
kts
Gust
kts
20/11:30pm 19.8 16.1 18.3 91 0.9 SSW 35 50 19 27 1012.1 - 1.8
20/11:06pm 21.4 19.0 18.2 82 2.0 SW 28 46 15 25 1012.3 - 0.0
20/11:00pm 21.5 20.5 17.9 80 2.2 SW 20 37 11 20 1012.2 - 0.0
20/10:57pm 21.4 20.6 18.0 81 2.1 SSW 19 39 10 21 1011.6 - 0.0
20/10:54pm 21.5 20.6 18.1 81 2.1 SE 20 39 11 21 1009.6 - 0.0
20/10:30pm 21.6 17.6 18.6 83 1.9 E 37 43 20 23 1007.6 - 0.0
20/10:00pm 21.6 18.0 18.6 83 1.9 E 35 41 19 22 1007.8 - 0.0
20/09:30pm 21.6 17.7 18.8 84 1.8 E 37 44 20 24 1007.3 - 0.0
20/09:00pm 21.6 17.8 19.0 85 1.6 E 37 46 20 25 1007.2 1007.2 0.0
20/08:30pm 21.4 16.9 19.0 86 1.5 E 41 46 22 25 1006.4 - 0.0
20/08:00pm 21.5 17.4 19.1 86 1.5 E 39 44 21 24 1006.1 - 0.0
20/07:30pm 21.6 17.5 19.2 86 1.5 E 39 46 21 25 1005.7 - 0.0
20/07:00pm 21.5 17.7 18.9 85 1.6 E 37 43 20 23 1005.8 - 0.0
20/06:30pm 21.9 18.8 19.6 87 1.5 E 35 43 19 23 1005.8 - 0.0
20/06:00pm 21.9 18.6 19.3 85 1.7 E 35 41 19 22 1006.1 1006.1 0.0
20/05:30pm 22.2 18.9 19.2 83 1.9 E 35 41 19 22 1005.9 - 0.0
20/05:00pm 22.5 19.1 19.1 81 2.2 E 35 44 19 24 1005.6 - 0.0
20/04:30pm 22.8 19.7 19.6 82 2.0 E 35 43 19 23 1005.7 - 0.0
20/04:00pm 22.9 19.7 19.5 81 2.2 E 35 43 19 23 1006.2 - 0.0
20/03:30pm 23.0 19.3 19.2 79 2.4 E 37 43 20 23 1006.6 - 0.0
20/03:00pm 23.2 20.2 19.1 78 2.6 E 33 39 18 21 1007.2 1007.2 0.0
20/02:30pm 23.1 20.6 18.8 77 2.7 E 30 39 16 21 1007.9 - 0.0
20/02:00pm 23.5 21.0 18.8 75 3.0 E 30 35 16 19 1008.5 - 0.0
20/01:30pm 23.4 20.7 18.5 74 3.1 E 30 33 16 18 1008.9 - 0.0
20/01:00pm 23.5 20.8 18.4 73 3.2 E 30 33 16 18 1009.4 - 0.0
20/12:30pm 23.5 20.6 17.9 71 3.5 E 30 35 16 19 1009.8 - 0.0
20/12:00pm 23.3 20.0 18.0 72 3.3 E 32 37 17 20 1010.6 1010.6 0.0
20/11:30am 23.1 20.1 17.8 72 3.3 E 30 35 16 19 1011.4 - 0.0
20/11:00am 23.5 20.4 17.5 69 3.7 E 30 35 16 19 1012.0 - 0.0
20/10:30am 23.6 21.0 17.8 70 3.6 E 28 32 15 17 1012.6 - 0.0
20/10:00am 23.0 20.1 17.9 73 3.2 E 30 33 16 18 1012.9 - 0.0
20/09:30am 23.0 19.9 17.5 71 3.4 E 30 35 16 19 1013.3 - 0.0
20/09:00am 23.4 20.6 17.4 69 3.7 E 28 32 15 17 1013.8 1013.8 0.0
20/08:30am 22.1 18.6 16.6 71 3.3 E 30 33 16 18 1014.2 - 0.0
20/08:00am 22.0 19.4 15.8 68 3.7 E 24 30 13 16 1014.8 - 0.0
20/07:30am 21.7 19.5 16.0 70 3.4 ENE 22 26 12 14 1015.2 - 0.0
20/07:00am 20.5 17.4 15.5 73 3.0 ENE 26 32 14 17 1015.8 - 0.0
20/06:30am 18.9 16.9 15.4 80 2.1 NE 20 33 11 18 1016.2 - 0.0
20/06:00am 18.2 16.1 15.1 82 1.8 NNE 20 28 11 15 1015.7 1015.7 0.0
20/05:30am 16.5 15.4 14.3 87 1.3 N 13 20 7 11 1015.7 - 0.0
20/05:00am 16.6 15.5 14.4 87 1.3 NNE 13 22 7 12 1015.3 - 0.0
20/04:30am 17.5 15.9 15.1 86 1.4 NNE 17 24 9 13 1014.6 - 0.0
20/04:00am 17.4 14.8 15.0 86 1.4 NE 22 26 12 14 1014.3 - 0.0
20/03:30am 17.6 14.7 15.2 86 1.4 NE 24 30 13 16 1014.3 - 0.0
20/03:00am 17.6 15.4 15.0 85 1.5 NE 20 28 11 15 1014.8 1014.8 0.0
20/02:30am 17.6 15.0 14.9 84 1.6 NE 22 28 12 15 1014.9 - 0.0
20/02:00am 18.0 15.5 15.1 83 1.7 NE 22 33 12 18 1015.4 - 0.0
20/01:30am 18.1 16.0 15.2 83 1.7 NE 20 26 11 14 1015.5 - 0.0
20/01:00am 18.8 16.7 15.3 80 2.1 NE 20 39 11 21 1015.8 - 0.0
20/12:30am 19.4 14.8 16.2 82 1.9 E 35 43 19 23 1016.2 - 0.0
20/12:00am 19.4 14.8 16.1 81 2.0 E 35 41 19 22 1016.6 1016.6 0.0
 
Date/Time
WST
Temp
°C
App
Temp
°C
Dew
Point
Rel
Hum
%
Delta-T
°C
Wind Press
QNH
hPa
Press
MSL
hPa
Rain
since 9 am
mm
Dir
 
Spd
km/h
Gust
km/h
Spd
kts
Gust
kts
19/11:30pm 19.6 15.1 16.4 82 1.9 E 35 41 19 22 1017.1 - 0.0
19/11:00pm 19.6 15.0 16.1 80 2.1 E 35 39 19 21 1017.3 - 0.0
19/10:30pm 19.6 14.5 15.9 79 2.2 E 37 43 20 23 1017.4 - 0.0
19/10:00pm 19.6 14.6 16.1 80 2.1 E 37 43 20 23 1017.4 - 0.0
19/09:30pm 19.7 14.4 16.3 81 2.0 E 39 44 21 24 1017.5 - 0.0
19/09:00pm 19.5 13.9 15.6 78 2.3 E 39 46 21 25 1017.6 1017.6 0.0
19/08:30pm 19.6 14.2 15.9 79 2.2 E 39 46 21 25 1017.7 - 0.0
19/08:00pm 19.7 13.8 15.8 78 2.3 E 41 48 22 26 1017.2 - 0.0

Other Formats:

Comma delimited format used in spreadsheet applications
http://www.bom.gov.au/fwo/IDW60801/IDW60801.94644.axf

JavaScript Object Notation format (JSON) in row-major order
http://www.bom.gov.au/fwo/IDW60801/IDW60801.94644.json